Time;durP1;ratioP1;P1;durP2;ratioP2;P2;SDS_P1;SDS_P2;PMS_P1;PMS_P2;Temp;Humidity;BMP_temperature;BMP_pressure;BME280_temperature;BME280_humidity;BME280_pressure;Samples;Min_cycle;Max_cycle;Signal;HPM_P1;HPM_P2
2022/03/19 00:02:13;;;;;;;12.30;8.52;;;;;;;6.92;72.22;104354.97;5019148;28;20121;-75
2022/03/19 00:04:39;;;;;;;17.98;9.20;;;;;;;6.89;71.97;104353.72;5020549;28;20029;-75
2022/03/19 00:07:04;;;;;;;13.98;9.52;;;;;;;6.85;72.27;104357.72;5021089;28;20033;-75
2022/03/19 00:09:32;;;;;;;14.57;8.60;;;;;;;6.84;72.43;104358.50;5018847;28;20296;-75
2022/03/19 00:11:57;;;;;;;14.18;8.55;;;;;;;6.78;71.82;104356.22;5024962;28;20041;-75
2022/03/19 00:14:24;;;;;;;15.23;9.60;;;;;;;6.77;72.13;104351.78;5029230;28;20097;-75
2022/03/19 00:16:50;;;;;;;15.18;9.38;;;;;;;6.73;71.87;104357.44;5024629;28;20142;-75
2022/03/19 00:19:15;;;;;;;14.38;9.15;;;;;;;6.71;72.43;104350.31;5016989;28;20303;-75
2022/03/19 00:21:41;;;;;;;16.10;9.70;;;;;;;6.68;72.46;104353.50;5021767;28;20037;-75
2022/03/19 00:24:07;;;;;;;15.50;9.18;;;;;;;6.64;72.33;104351.38;5023909;28;20129;-75
2022/03/19 00:26:33;;;;;;;15.45;9.55;;;;;;;6.58;72.66;104343.94;5025236;28;20069;-75
2022/03/19 00:28:59;;;;;;;14.32;9.60;;;;;;;6.58;73.02;104353.41;5023312;28;20097;-75
2022/03/19 00:31:24;;;;;;;13.85;9.45;;;;;;;6.56;73.24;104345.47;5020490;28;20174;-75
2022/03/19 00:33:49;;;;;;;17.55;9.65;;;;;;;6.52;72.56;104342.44;5023457;28;20030;-75
2022/03/19 00:36:15;;;;;;;15.65;10.57;;;;;;;6.51;72.86;104343.19;5022672;28;20284;-75
2022/03/19 00:38:40;;;;;;;15.55;10.27;;;;;;;6.48;73.29;104343.81;5021406;28;20188;-75
2022/03/19 00:41:06;;;;;;;15.65;10.27;;;;;;;6.48;73.68;104341.22;5023555;28;20105;-75
2022/03/19 00:43:31;;;;;;;16.88;10.30;;;;;;;6.47;73.90;104338.47;5022637;28;20030;-75
2022/03/19 00:45:56;;;;;;;14.02;10.52;;;;;;;6.44;73.29;104340.03;5024567;28;20088;-75
2022/03/19 00:48:22;;;;;;;16.33;10.43;;;;;;;6.41;73.43;104344.88;5017315;28;20025;-75
2022/03/19 00:50:47;;;;;;;17.67;10.77;;;;;;;6.39;73.40;104341.25;5024212;28;20026;-75
2022/03/19 00:53:12;;;;;;;15.65;10.48;;;;;;;6.36;74.25;104340.94;5022566;28;20021;-75
2022/03/19 00:55:38;;;;;;;15.95;11.35;;;;;;;6.32;73.76;104341.41;5023528;28;20026;-75
2022/03/19 00:58:03;;;;;;;15.60;10.68;;;;;;;6.30;73.97;104337.78;5020536;28;20039;-75
2022/03/19 01:00:28;;;;;;;15.85;10.90;;;;;;;6.26;74.33;104336.53;5024673;28;20017;-75
2022/03/19 01:02:55;;;;;;;15.70;11.40;;;;;;;6.26;74.03;104333.06;5021208;28;20033;-75
2022/03/19 01:05:22;;;;;;;15.80;10.65;;;;;;;6.21;74.59;104332.59;5022709;28;20025;-75
2022/03/19 01:07:53;;;;;;;18.55;11.25;;;;;;;6.15;74.35;104329.38;5021992;28;20237;-75
2022/03/19 01:10:23;;;;;;;15.35;11.15;;;;;;;6.13;74.55;104328.34;5022020;28;20033;-75
2022/03/19 01:12:54;;;;;;;17.30;11.63;;;;;;;6.09;74.75;104334.88;5023543;28;20022;-75
2022/03/19 01:15:20;;;;;;;16.40;11.82;;;;;;;6.08;74.75;104330.50;5015434;28;20195;-75
2022/03/19 01:17:45;;;;;;;19.55;12.30;;;;;;;6.09;74.68;104337.47;5021941;28;20053;-75
2022/03/19 01:20:12;;;;;;;17.85;12.70;;;;;;;6.08;75.05;104332.13;5023476;28;20041;-75
2022/03/19 01:22:40;;;;;;;17.48;12.15;;;;;;;6.05;74.91;104324.06;5022446;28;20101;-75
2022/03/19 01:25:07;;;;;;;17.60;12.45;;;;;;;6.04;74.65;104324.84;5022936;28;20117;-75
2022/03/19 01:27:34;;;;;;;18.98;12.55;;;;;;;6.03;75.26;104317.84;5023258;28;20025;-75
2022/03/19 01:30:00;;;;;;;19.35;13.10;;;;;;;6.02;75.84;104322.09;5023633;28;20033;-75
2022/03/19 01:32:26;;;;;;;16.42;12.52;;;;;;;6.00;75.89;104323.63;5023453;28;20071;-75
2022/03/19 01:34:51;;;;;;;19.38;13.82;;;;;;;6.01;76.03;104319.34;5021473;28;20088;-75
2022/03/19 01:37:16;;;;;;;19.88;13.75;;;;;;;5.98;75.78;104320.00;5020974;28;20531;-75
2022/03/19 01:39:42;;;;;;;20.90;13.65;;;;;;;5.97;75.93;104312.00;5022609;28;20029;-76
2022/03/19 01:42:07;;;;;;;19.73;13.55;;;;;;;5.99;76.11;104316.63;5021944;28;20240;-75
2022/03/19 01:44:33;;;;;;;22.10;13.75;;;;;;;5.97;76.12;104320.75;5023843;28;20223;-75
2022/03/19 01:47:02;;;;;;;19.38;13.63;;;;;;;5.95;76.08;104311.88;5021019;28;20058;-75
2022/03/19 01:49:29;;;;;;;19.98;14.52;;;;;;;5.94;76.02;104325.59;5022586;28;20037;-75
2022/03/19 01:51:54;;;;;;;21.95;14.27;;;;;;;5.91;75.65;104320.13;5022214;28;20288;-75
2022/03/19 01:54:31;;;;;;;21.20;15.00;;;;;;;5.87;75.62;104313.69;5021720;28;20084;-75
2022/03/19 01:56:57;;;;;;;19.30;14.55;;;;;;;5.83;76.58;104313.25;5022753;28;20095;-81
2022/03/19 01:59:24;;;;;;;21.63;14.77;;;;;;;5.81;76.68;104307.94;5016576;28;20028;-81
2022/03/19 02:01:50;;;;;;;20.98;15.10;;;;;;;5.81;76.61;104299.22;5023309;28;20045;-81
2022/03/19 02:04:16;;;;;;;20.27;14.80;;;;;;;5.79;76.55;104305.94;5021291;28;20030;-81
2022/03/19 02:06:44;;;;;;;23.00;15.15;;;;;;;5.77;77.10;104297.13;5023678;28;20040;-81
2022/03/19 02:09:10;;;;;;;22.98;14.88;;;;;;;5.77;77.25;104303.22;5023326;28;20041;-81
2022/03/19 02:11:36;;;;;;;21.35;14.68;;;;;;;5.77;77.47;104299.72;5024389;28;20188;-81
2022/03/19 02:14:02;;;;;;;22.67;15.55;;;;;;;5.74;77.39;104296.03;5023532;28;20176;-80
2022/03/19 02:16:27;;;;;;;22.65;14.98;;;;;;;5.71;77.79;104295.75;5022892;28;20054;-81
2022/03/19 02:18:52;;;;;;;22.67;15.43;;;;;;;5.69;77.99;104286.94;5019613;28;20029;-81
2022/03/19 02:21:18;;;;;;;23.08;15.80;;;;;;;5.70;77.98;104293.91;5022193;28;20208;-80
2022/03/19 02:26:27;;;;;;;26.10;16.05;;;;;;;5.70;78.59;104285.25;5019553;28;20092;-76
2022/03/19 02:28:53;;;;;;;24.63;16.52;;;;;;;5.69;78.99;104274.00;5021784;28;20029;-75
2022/03/19 02:31:19;;;;;;;26.10;15.70;;;;;;;5.68;78.78;104269.56;5021142;28;20042;-75
2022/03/19 02:33:44;;;;;;;24.05;15.80;;;;;;;5.69;78.75;104267.88;5021301;28;20026;-75
2022/03/19 02:36:09;;;;;;;24.02;15.70;;;;;;;5.71;78.68;104264.69;5020687;28;20268;-75
2022/03/19 02:38:35;;;;;;;23.13;15.68;;;;;;;5.71;78.70;104259.53;5020573;28;20042;-75
2022/03/19 02:41:04;;;;;;;24.65;15.95;;;;;;;5.72;78.83;104263.00;5024985;28;20156;-75
2022/03/19 02:43:29;;;;;;;24.33;16.33;;;;;;;5.74;79.25;104261.50;5023010;28;20029;-75
2022/03/19 02:45:55;;;;;;;23.42;15.75;;;;;;;5.73;79.65;104259.66;5021442;28;20033;-75
2022/03/19 02:48:20;;;;;;;24.13;15.50;;;;;;;5.73;78.79;104259.66;5020123;28;20034;-75
2022/03/19 02:50:45;;;;;;;23.40;15.57;;;;;;;5.73;78.92;104257.09;5021741;28;20045;-75
2022/03/19 02:53:11;;;;;;;24.30;15.70;;;;;;;5.71;79.00;104251.75;5020893;28;20328;-76
2022/03/19 02:55:41;;;;;;;22.77;15.15;;;;;;;5.70;79.32;104259.38;5017142;28;20046;-75
2022/03/19 02:58:08;;;;;;;23.98;15.50;;;;;;;5.69;79.61;104252.38;5021798;28;20272;-75
2022/03/19 03:00:34;;;;;;;25.52;16.15;;;;;;;5.68;79.39;104254.06;5024236;28;20164;-75
2022/03/19 03:03:00;;;;;;;25.33;15.13;;;;;;;5.68;79.82;104251.47;5021123;28;20111;-75
2022/03/19 03:05:26;;;;;;;24.35;15.25;;;;;;;5.67;80.03;104251.31;5022141;28;20272;-75
2022/03/19 03:07:51;;;;;;;26.08;15.38;;;;;;;5.65;79.53;104256.34;5021478;28;20025;-76
2022/03/19 03:10:18;;;;;;;23.13;15.05;;;;;;;5.62;79.70;104256.03;5018580;28;20029;-76
2022/03/19 03:12:43;;;;;;;23.50;15.00;;;;;;;5.64;79.88;104253.59;5021604;28;20079;-75
2022/03/19 03:15:09;;;;;;;24.15;14.95;;;;;;;5.65;80.23;104253.75;5019956;28;20076;-75
2022/03/19 03:17:35;;;;;;;26.25;15.43;;;;;;;5.65;80.53;104251.16;5019522;28;20252;-75
2022/03/19 03:20:01;;;;;;;25.17;14.75;;;;;;;5.62;80.08;104255.09;5022721;28;20275;-75
2022/03/19 03:22:27;;;;;;;23.42;14.68;;;;;;;5.61;80.23;104248.13;5019443;28;20126;-75
2022/03/19 03:24:53;;;;;;;24.27;14.93;;;;;;;5.61;80.50;104237.78;5021486;28;20029;-75
2022/03/19 03:27:18;;;;;;;26.63;15.38;;;;;;;5.62;80.63;104244.75;5020090;28;21166;-75
2022/03/19 03:29:44;;;;;;;20.17;14.20;;;;;;;5.60;80.94;104252.38;5021082;28;20100;-75
2022/03/19 03:32:09;;;;;;;26.13;15.38;;;;;;;5.59;81.04;104245.38;5019528;28;20166;-75
2022/03/19 03:34:36;;;;;;;22.30;14.40;;;;;;;5.58;80.97;104246.16;5013721;28;20096;-75
2022/03/19 03:37:01;;;;;;;23.00;15.75;;;;;;;5.58;81.21;104253.91;5021555;28;20345;-75
2022/03/19 03:39:26;;;;;;;23.65;14.20;;;;;;;5.57;80.93;104244.31;5020830;28;20026;-75
2022/03/19 03:41:52;;;;;;;23.58;14.57;;;;;;;5.56;81.33;104256.34;5021568;28;20247;-75
2022/03/19 03:44:17;;;;;;;22.55;14.25;;;;;;;5.54;81.83;104252.66;5021626;28;20234;-75
2022/03/19 03:46:42;;;;;;;24.95;14.43;;;;;;;5.51;80.93;104251.47;5020935;28;20272;-76
2022/03/19 03:49:08;;;;;;;24.40;13.85;;;;;;;5.51;81.11;104247.19;5025030;28;20092;-76
2022/03/19 03:51:33;;;;;;;22.02;14.48;;;;;;;5.52;80.87;104255.91;5024327;28;20281;-75
2022/03/19 03:53:58;;;;;;;24.13;13.98;;;;;;;5.50;80.81;104254.81;5024577;28;20380;-76
2022/03/19 03:56:24;;;;;;;21.30;13.57;;;;;;;5.49;81.14;104252.97;5019765;28;20052;-76
2022/03/19 03:58:50;;;;;;;22.40;13.98;;;;;;;5.47;81.41;104246.75;5024386;28;20026;-75
2022/03/19 04:01:16;;;;;;;24.65;13.73;;;;;;;5.43;81.40;104247.19;5018062;28;20042;-76
2022/03/19 04:03:41;;;;;;;24.13;13.77;;;;;;;5.44;81.40;104243.84;5023102;28;20022;-76
2022/03/19 04:06:07;;;;;;;23.15;13.57;;;;;;;5.42;81.44;104242.78;5024152;28;20033;-75
2022/03/19 04:08:32;;;;;;;22.58;13.18;;;;;;;5.40;81.98;104243.56;5023388;28;20026;-75
2022/03/19 04:10:58;;;;;;;22.17;13.63;;;;;;;5.42;81.35;104238.53;5025283;28;20267;-75
2022/03/19 04:13:23;;;;;;;21.08;12.52;;;;;;;5.41;81.79;104234.13;5022906;28;20099;-75
2022/03/19 04:15:50;;;;;;;22.70;13.68;;;;;;;5.42;81.56;104241.13;5024555;28;20065;-76
2022/03/19 04:18:15;;;;;;;22.80;13.52;;;;;;;5.42;81.57;104230.78;5023435;28;20363;-75
2022/03/19 04:20:40;;;;;;;21.30;13.25;;;;;;;5.42;81.95;104235.00;5024960;28;20022;-75
2022/03/19 04:23:06;;;;;;;22.48;13.35;;;;;;;5.39;81.58;104239.13;5023400;28;20045;-75
2022/03/19 04:25:31;;;;;;;22.20;13.38;;;;;;;5.37;81.79;104238.09;5024166;28;20307;-75
2022/03/19 04:27:58;;;;;;;21.23;13.25;;;;;;;5.33;81.51;104235.94;5019237;28;20271;-75
2022/03/19 04:30:25;;;;;;;23.02;13.43;;;;;;;5.29;81.61;104231.22;5024103;28;20216;-75
2022/03/19 04:32:53;;;;;;;25.42;14.02;;;;;;;5.26;81.72;104236.09;5022263;28;20045;-75
2022/03/19 04:38:10;;;;;;;23.42;13.40;;;;;;;5.20;82.16;104232.91;5027027;28;20112;-81
2022/03/19 04:40:36;;;;;;;24.90;13.95;;;;;;;5.17;81.84;104229.97;5024591;28;20036;-81
2022/03/19 04:43:02;;;;;;;20.73;13.32;;;;;;;5.14;81.93;104216.75;5024458;28;20050;-81
2022/03/19 04:45:28;;;;;;;23.05;14.15;;;;;;;5.12;82.14;104223.47;5024359;28;20030;-82
2022/03/19 04:47:53;;;;;;;24.63;14.10;;;;;;;5.10;82.15;104218.13;5024181;28;20041;-81
2022/03/19 04:50:19;;;;;;;23.45;13.57;;;;;;;5.08;82.34;104210.97;5023256;28;20024;-81
2022/03/19 04:52:45;;;;;;;25.10;13.48;;;;;;;5.05;81.95;104212.50;5024682;28;20049;-81
2022/03/19 04:55:11;;;;;;;25.48;14.20;;;;;;;5.03;82.41;104211.41;5024394;28;20060;-82
2022/03/19 04:57:37;;;;;;;20.05;13.35;;;;;;;5.02;82.20;104217.34;5022808;28;20041;-81
2022/03/19 05:00:05;;;;;;;23.35;13.93;;;;;;;4.98;82.22;104217.81;5024840;28;20256;-82
2022/03/19 05:02:31;;;;;;;21.90;13.93;;;;;;;4.97;81.97;104225.41;5023514;28;20060;-81
2022/03/19 05:04:56;;;;;;;23.90;14.18;;;;;;;4.93;82.31;104224.19;5022871;28;20018;-82
2022/03/19 05:07:22;;;;;;;23.70;13.77;;;;;;;4.92;82.55;104222.34;5020849;28;20032;-82
2022/03/19 05:12:39;;;;;;;25.30;13.75;;;;;;;4.89;82.41;104229.78;5022859;28;20033;-81
2022/03/19 05:15:05;;;;;;;22.92;13.85;;;;;;;4.87;82.46;104226.16;5023849;28;20080;-82
2022/03/19 05:17:31;;;;;;;24.73;14.13;;;;;;;4.84;81.68;104224.16;5022361;28;20033;-81
2022/03/19 05:19:57;;;;;;;25.13;14.38;;;;;;;4.81;81.96;104228.13;5020510;28;20018;-82
2022/03/19 05:22:22;;;;;;;24.95;14.13;;;;;;;4.79;82.47;104232.19;5022161;28;20072;-82
2022/03/19 05:24:48;;;;;;;22.67;13.43;;;;;;;4.77;82.69;104228.56;5022057;28;20257;-82
2022/03/19 05:27:13;;;;;;;21.80;13.65;;;;;;;4.75;82.66;104235.22;5019722;28;20038;-82
2022/03/19 05:29:39;;;;;;;24.15;14.07;;;;;;;4.73;82.32;104232.47;5023877;28;20061;-82
2022/03/19 05:32:06;;;;;;;24.60;14.00;;;;;;;4.70;83.05;104232.16;5023567;28;20076;-82
2022/03/19 05:34:31;;;;;;;24.48;14.32;;;;;;;4.68;83.16;104228.53;5021756;28;20036;-82
2022/03/19 05:36:58;;;;;;;25.30;14.02;;;;;;;4.65;83.11;104234.28;5021095;28;20038;-76
2022/03/19 05:39:23;;;;;;;26.08;14.95;;;;;;;4.63;83.26;104230.63;5023095;28;20029;-75
2022/03/19 05:41:49;;;;;;;22.40;13.90;;;;;;;4.63;83.05;104238.38;5021594;28;20126;-76
2022/03/19 05:44:14;;;;;;;25.67;14.32;;;;;;;4.63;83.49;104228.03;5021183;28;20046;-75
2022/03/19 05:46:39;;;;;;;23.40;14.68;;;;;;;4.62;83.56;104243.38;5021373;28;20180;-75
2022/03/19 05:49:05;;;;;;;23.45;14.05;;;;;;;4.61;83.75;104239.88;5021986;28;20162;-76
2022/03/19 05:51:30;;;;;;;27.13;14.75;;;;;;;4.61;83.50;104232.13;5022114;28;20053;-75
2022/03/19 05:53:56;;;;;;;23.40;14.38;;;;;;;4.62;83.50;104239.16;5020959;28;20050;-75
2022/03/19 05:56:24;;;;;;;25.25;14.38;;;;;;;4.62;83.63;104244.31;5022365;28;20061;-76
2022/03/19 05:58:50;;;;;;;24.55;14.68;;;;;;;4.63;83.77;104243.53;5023173;28;20014;-76
2022/03/19 06:01:15;;;;;;;25.23;14.55;;;;;;;4.64;83.77;104242.78;5021277;28;20089;-76
2022/03/19 06:03:40;;;;;;;27.92;15.18;;;;;;;4.63;84.10;104230.63;5021152;28;20045;-75
2022/03/19 06:06:06;;;;;;;27.17;14.65;;;;;;;4.65;83.78;104231.69;5021564;28;20042;-75
2022/03/19 06:08:31;;;;;;;28.48;14.73;;;;;;;4.65;84.15;104231.69;5019950;28;20176;-76
2022/03/19 06:10:56;;;;;;;25.77;14.63;;;;;;;4.69;84.36;104236.44;5022905;28;20287;-76
2022/03/19 06:13:23;;;;;;;27.08;15.05;;;;;;;4.72;84.69;104242.66;5022346;28;20049;-76
2022/03/19 06:15:49;;;;;;;27.33;15.13;;;;;;;4.74;84.19;104236.91;5019007;28;20168;-76
2022/03/19 06:18:14;;;;;;;26.33;14.75;;;;;;;4.77;84.58;104244.06;5022787;28;20046;-76
2022/03/19 06:20:39;;;;;;;26.88;15.10;;;;;;;4.79;84.28;104242.53;5022504;28;20030;-76
2022/03/19 06:23:05;;;;;;;23.85;14.88;;;;;;;4.82;84.50;104236.03;5021476;28;20351;-76
2022/03/19 06:25:30;;;;;;;24.95;15.05;;;;;;;4.85;84.52;104232.81;5021441;28;20235;-75
2022/03/19 06:27:55;;;;;;;29.88;14.40;;;;;;;4.89;84.21;104242.72;5022640;28;20033;-75
2022/03/19 06:30:20;;;;;;;23.77;14.73;;;;;;;4.91;84.48;104240.28;5021403;28;20022;-76
2022/03/19 06:32:46;;;;;;;26.08;14.20;;;;;;;4.92;84.11;104240.44;5022317;28;20022;-76
2022/03/19 06:37:19;;;;;;;27.02;14.80;;;;;;;4.93;84.46;104247.44;5020632;28;20017;-75
2022/03/19 06:37:56;;;;;;;25.50;15.07;;;;;;;4.95;84.48;104239.84;5020276;28;20187;-76
2022/03/19 06:40:22;;;;;;;26.27;14.63;;;;;;;4.96;84.51;104242.56;5020445;28;20108;-76
2022/03/19 06:42:48;;;;;;;27.90;15.55;;;;;;;4.98;84.36;104246.25;5025234;28;20027;-76
2022/03/19 06:45:14;;;;;;;26.10;14.68;;;;;;;5.00;84.31;104249.88;5020854;28;20155;-76
2022/03/19 06:47:39;;;;;;;25.02;15.02;;;;;;;5.06;84.07;104252.19;5020189;28;20215;-76
2022/03/19 06:50:05;;;;;;;27.73;15.57;;;;;;;5.14;84.28;104248.72;5021937;28;20204;-76
2022/03/19 06:52:33;;;;;;;28.40;15.45;;;;;;;5.28;83.73;104251.75;5021574;28;20076;-76
2022/03/19 06:54:58;;;;;;;25.25;14.82;;;;;;;5.46;83.74;104253.59;5020514;28;20088;-76
2022/03/19 06:57:23;;;;;;;27.10;15.10;;;;;;;5.72;82.67;104253.59;5018279;28;20018;-76
2022/03/19 06:59:49;;;;;;;29.17;15.05;;;;;;;5.95;81.78;104248.84;5021767;28;20064;-76
2022/03/19 07:02:14;;;;;;;28.40;15.50;;;;;;;6.16;80.91;104243.19;5020422;28;20144;-76
2022/03/19 07:04:39;;;;;;;25.13;15.23;;;;;;;6.35;80.30;104247.56;5020583;28;20017;-76
2022/03/19 07:07:05;;;;;;;30.05;15.30;;;;;;;6.64;79.70;104246.84;5018446;28;20041;-76
2022/03/19 07:09:30;;;;;;;24.67;14.32;;;;;;;6.93;78.22;104247.88;5021008;28;20017;-76
2022/03/19 07:11:55;;;;;;;24.40;14.80;;;;;;;7.17;77.41;104244.81;5022152;28;20036;-76
2022/03/19 07:14:22;;;;;;;31.20;15.57;;;;;;;7.62;76.66;104244.66;5020130;28;20260;-76
2022/03/19 07:16:48;;;;;;;22.17;14.65;;;;;;;8.69;73.20;104236.75;5020086;28;20057;-76
2022/03/19 07:19:13;;;;;;;24.45;14.20;;;;;;;9.49;69.97;104237.38;5019702;28;20042;-76
2022/03/19 07:21:39;;;;;;;25.83;14.07;;;;;;;9.78;68.39;104238.88;5020636;28;20088;-76
2022/03/19 07:24:05;;;;;;;22.38;14.27;;;;;;;10.25;66.92;104246.97;5019649;28;20101;-76
2022/03/19 07:26:32;;;;;;;25.40;14.38;;;;;;;10.98;64.28;104234.41;5021377;28;20183;-76
2022/03/19 07:28:58;;;;;;;22.67;13.60;;;;;;;11.59;62.33;104232.91;5019419;28;20347;-75
2022/03/19 07:31:23;;;;;;;27.35;14.68;;;;;;;12.39;59.95;104238.69;5020717;28;20022;-76
2022/03/19 07:33:50;;;;;;;26.17;13.55;;;;;;;13.19;57.59;104225.91;5021381;28;20261;-75
2022/03/19 07:36:18;;;;;;;23.83;14.20;;;;;;;13.50;55.74;104237.56;5017992;28;20029;-75
2022/03/19 07:38:43;;;;;;;20.80;13.20;;;;;;;13.12;56.24;104238.47;5020348;28;20072;-76
2022/03/19 07:43:53;;;;;;;25.00;13.30;;;;;;;12.53;57.87;104227.50;5020069;28;20029;-76
2022/03/19 07:46:20;;;;;;;22.40;14.20;;;;;;;12.61;57.66;104221.91;5020588;28;20088;-75
2022/03/19 07:48:46;;;;;;;26.80;14.40;;;;;;;12.33;58.23;104231.31;5019338;28;20299;-76
2022/03/19 07:51:11;;;;;;;25.13;13.80;;;;;;;13.21;56.47;104228.63;5020561;28;20085;-76
2022/03/19 07:53:37;;;;;;;24.88;13.20;;;;;;;13.96;53.90;104235.31;5019600;28;20260;-76
2022/03/19 07:56:03;;;;;;;26.20;14.48;;;;;;;13.20;55.11;104224.19;5019743;28;20042;-76
2022/03/19 07:58:28;;;;;;;22.05;14.27;;;;;;;12.10;57.78;104220.94;5020512;28;20034;-76
2022/03/19 08:00:54;;;;;;;24.45;14.27;;;;;;;11.28;60.92;104222.75;5021031;28;20025;-75
2022/03/19 08:03:19;;;;;;;22.33;13.68;;;;;;;10.73;62.88;104224.69;5019972;28;20034;-75
2022/03/19 08:05:45;;;;;;;21.55;13.88;;;;;;;10.18;64.91;104232.56;5019917;28;20089;-75
2022/03/19 08:08:11;;;;;;;24.85;14.02;;;;;;;9.79;65.83;104225.97;5018734;28;20053;-75
2022/03/19 08:10:37;;;;;;;24.98;13.85;;;;;;;9.51;67.34;104230.59;5020216;28;20030;-75
2022/03/19 08:13:07;;;;;;;25.13;14.35;;;;;;;9.32;68.16;104225.56;5017284;28;20033;-75
2022/03/19 08:15:38;;;;;;;22.40;13.30;;;;;;;9.18;68.17;104227.91;5018318;28;20293;-75
2022/03/19 08:18:04;;;;;;;21.88;13.00;;;;;;;9.10;69.04;104221.16;5017001;28;20034;-75
2022/03/19 08:20:30;;;;;;;21.40;13.23;;;;;;;9.02;68.89;104220.53;5019168;28;20196;-75
2022/03/19 08:22:56;;;;;;;22.92;13.20;;;;;;;9.01;69.58;104234.28;5019727;28;20045;-75
2022/03/19 08:25:21;;;;;;;23.83;12.85;;;;;;;9.03;69.01;104224.03;5021181;28;20065;-75
2022/03/19 08:27:47;;;;;;;21.65;12.88;;;;;;;9.03;69.32;104226.63;5018629;28;20034;-75
2022/03/19 08:30:12;;;;;;;24.25;12.52;;;;;;;9.05;69.17;104230.25;5015706;28;20191;-75
2022/03/19 08:32:38;;;;;;;22.30;13.45;;;;;;;9.10;69.31;104231.56;5023572;28;20032;-75
2022/03/19 08:35:06;;;;;;;23.55;12.30;;;;;;;9.10;69.32;104230.66;5024566;28;20189;-75
2022/03/19 08:37:32;;;;;;;19.15;11.50;;;;;;;9.12;68.47;104219.56;5023491;28;20372;-75
2022/03/19 08:40:16;;;;;;;22.25;12.30;;;;;;;9.15;68.95;104219.88;5023482;28;20026;-75
2022/03/19 08:42:51;;;;;;;21.98;12.18;;;;;;;9.23;68.48;104225.69;5021816;28;20033;-75
2022/03/19 08:45:21;;;;;;;23.25;12.13;;;;;;;9.29;68.66;104222.69;5022569;28;20072;-75
2022/03/19 08:47:49;;;;;;;19.42;11.65;;;;;;;9.34;68.17;104224.91;5019035;28;20065;-81
2022/03/19 08:50:14;;;;;;;21.85;11.23;;;;;;;9.38;67.15;104227.00;5023007;28;20118;-81
2022/03/19 08:52:41;;;;;;;22.58;12.68;;;;;;;9.41;67.69;104226.31;5022552;28;20025;-80
2022/03/19 08:55:07;;;;;;;18.00;11.55;;;;;;;9.48;67.99;104223.44;5024070;28;20113;-80
2022/03/19 08:57:32;;;;;;;19.42;11.02;;;;;;;9.53;67.67;104227.34;5028010;28;20013;-81
2022/03/19 08:59:58;;;;;;;21.95;10.65;;;;;;;9.62;67.48;104221.09;5022710;28;20048;-80
2022/03/19 09:02:26;;;;;;;18.70;11.07;;;;;;;9.68;67.61;104219.88;5023357;28;20142;-81
2022/03/19 09:04:54;;;;;;;17.67;10.70;;;;;;;9.73;67.21;104230.66;5022665;28;20022;-81
2022/03/19 09:07:20;;;;;;;15.05;10.20;;;;;;;9.81;66.83;104221.78;5020250;28;20095;-81
2022/03/19 09:09:45;;;;;;;19.13;10.75;;;;;;;9.86;66.25;104222.16;5023387;28;20041;-81
2022/03/19 09:12:11;;;;;;;18.83;10.93;;;;;;;9.88;66.11;104216.28;5020706;28;20287;-81
2022/03/19 09:14:36;;;;;;;19.08;11.00;;;;;;;9.92;65.86;104207.00;5022970;28;20264;-81
2022/03/19 09:17:05;;;;;;;19.38;11.10;;;;;;;9.97;66.49;104215.22;5022734;28;20296;-81
2022/03/19 09:19:30;;;;;;;20.47;11.37;;;;;;;10.01;65.29;104212.06;5021794;28;20207;-80
2022/03/19 09:21:55;;;;;;;20.08;11.35;;;;;;;10.01;64.62;104210.38;5022453;28;20327;-80
2022/03/19 09:24:21;;;;;;;17.60;10.20;;;;;;;10.04;65.12;104202.78;5023123;28;20120;-80
2022/03/19 09:26:46;;;;;;;20.65;11.25;;;;;;;10.11;65.89;104201.59;5018524;28;20592;-74
2022/03/19 09:29:15;;;;;;;19.98;11.25;;;;;;;10.15;63.64;104206.25;5021489;28;20033;-74
2022/03/19 09:31:43;;;;;;;18.88;10.90;;;;;;;10.18;65.44;104196.09;5022800;28;20025;-74
2022/03/19 09:34:10;;;;;;;15.93;10.37;;;;;;;10.24;65.48;104195.66;5021504;28;20280;-74
2022/03/19 09:36:36;;;;;;;20.25;11.27;;;;;;;10.30;65.70;104201.34;5022879;28;20039;-75
2022/03/19 09:39:02;;;;;;;20.02;10.40;;;;;;;10.36;64.57;104196.66;5023757;28;20095;-74
2022/03/19 09:41:27;;;;;;;14.73;9.48;;;;;;;10.42;63.35;104201.44;5023735;28;20038;-74
2022/03/19 09:43:55;;;;;;;19.42;9.68;;;;;;;10.42;63.64;104188.41;5022747;28;20021;-75
2022/03/19 09:46:21;;;;;;;17.92;9.90;;;;;;;10.44;63.28;104186.81;5021861;28;20038;-75
2022/03/19 09:48:49;;;;;;;16.60;8.48;;;;;;;10.47;62.84;104176.66;5022663;28;20069;-74
2022/03/19 09:51:16;;;;;;;17.98;9.07;;;;;;;10.54;62.98;104192.00;5023813;28;20040;-74
2022/03/19 09:53:43;;;;;;;18.80;9.43;;;;;;;10.61;62.25;104180.31;5022739;28;20026;-74
2022/03/19 09:56:09;;;;;;;16.90;8.88;;;;;;;10.70;63.15;104178.44;5020157;28;20116;-74
2022/03/19 09:58:34;;;;;;;17.42;9.65;;;;;;;10.80;63.49;104174.81;5022537;28;20289;-74
2022/03/19 10:01:05;;;;;;;16.23;8.60;;;;;;;10.88;62.44;104176.31;5015205;28;20061;-74
2022/03/19 10:03:38;;;;;;;16.38;8.52;;;;;;;10.95;61.27;104168.16;5023132;28;20029;-74
2022/03/19 10:08:58;;;;;;;18.63;8.77;;;;;;;11.10;61.60;104168.38;5022725;28;20057;-75
2022/03/19 10:11:28;;;;;;;15.15;8.32;;;;;;;11.19;60.54;104147.28;5023817;28;20256;-74
2022/03/19 10:13:54;;;;;;;15.70;6.88;;;;;;;11.25;58.10;104152.06;5021904;28;20240;-74
2022/03/19 10:16:22;;;;;;;14.68;6.97;;;;;;;11.28;56.40;104150.59;5022545;28;20260;-73
2022/03/19 10:19:01;;;;;;;15.45;7.63;;;;;;;11.38;58.14;104146.94;5020044;28;20080;-76
2022/03/19 10:21:27;;;;;;;15.45;7.95;;;;;;;11.46;56.35;104134.47;5022963;28;20022;-76
2022/03/19 10:23:54;;;;;;;14.13;6.78;;;;;;;11.53;55.71;104134.13;5018738;28;20084;-76
2022/03/19 10:26:28;;;;;;;11.32;5.90;;;;;;;11.57;55.81;104128.31;5022145;28;20245;-75
2022/03/19 10:29:07;;;;;;;12.00;6.10;;;;;;;11.66;54.69;104115.91;5021918;28;20125;-76
2022/03/19 10:31:46;;;;;;;12.90;5.60;;;;;;;11.79;53.71;104119.44;5019910;28;20036;-76
2022/03/19 10:34:12;;;;;;;13.13;5.95;;;;;;;11.83;49.76;104111.91;5019386;28;20026;-75
2022/03/19 10:36:40;;;;;;;12.88;6.45;;;;;;;11.82;51.40;104107.47;5021506;28;20013;-75
2022/03/19 10:39:30;;;;;;;12.63;6.05;;;;;;;11.92;53.48;104106.44;5022148;28;20103;-75
2022/03/19 10:42:13;;;;;;;12.15;5.70;;;;;;;12.03;49.67;104095.84;5022084;28;20269;-75
2022/03/19 10:44:38;;;;;;;9.63;4.85;;;;;;;12.12;47.79;104099.09;5022729;28;20089;-75
2022/03/19 10:47:05;;;;;;;11.48;4.75;;;;;;;12.12;46.17;104091.25;5021500;28;20040;-74
2022/03/19 10:49:33;;;;;;;11.40;4.78;;;;;;;12.07;45.64;104093.56;5021313;28;20026;-75
2022/03/19 10:52:02;;;;;;;14.57;4.82;;;;;;;12.08;48.65;104084.00;5020836;28;20022;-76
2022/03/19 10:54:28;;;;;;;9.02;4.65;;;;;;;12.12;46.27;104084.34;5014576;28;20057;-75
2022/03/19 10:56:55;;;;;;;9.93;4.75;;;;;;;12.21;48.68;104077.91;5015515;28;20041;-74
2022/03/19 10:59:21;;;;;;;9.07;4.65;;;;;;;12.30;46.97;104084.69;5023616;28;20310;-75
2022/03/19 11:01:51;;;;;;;8.80;4.20;;;;;;;12.36;42.15;104073.75;5020885;28;20142;-75
2022/03/19 11:04:18;;;;;;;10.85;4.15;;;;;;;12.42;43.48;104068.03;5019921;28;20060;-75
2022/03/19 11:06:51;;;;;;;7.53;4.03;;;;;;;12.47;43.12;104056.16;5020309;28;20045;-75
2022/03/19 11:09:19;;;;;;;8.10;4.10;;;;;;;12.53;41.97;104065.31;5021451;28;20025;-75
2022/03/19 11:11:58;;;;;;;9.38;4.40;;;;;;;12.59;41.99;104062.22;5016294;28;20033;-75
2022/03/19 11:14:28;;;;;;;8.07;3.97;;;;;;;12.66;42.34;104048.75;5027308;28;20268;-75
2022/03/19 11:17:23;;;;;;;8.95;4.10;;;;;;;12.77;42.98;104051.16;5021652;28;20086;-75
2022/03/19 11:19:49;;;;;;;7.95;3.95;;;;;;;12.81;39.51;104038.38;5022187;28;20085;-75
2022/03/19 11:22:16;;;;;;;10.65;4.00;;;;;;;12.86;40.06;104042.22;5020283;28;20026;-75
2022/03/19 11:25:10;;;;;;;7.75;4.15;;;;;;;12.94;41.47;104045.34;5019397;28;20081;-75
2022/03/19 11:27:37;;;;;;;9.50;3.83;;;;;;;12.95;37.56;104035.78;5009980;28;20025;-75
2022/03/19 11:30:05;;;;;;;7.75;3.90;;;;;;;12.97;38.09;104016.72;5020416;28;20029;-75